sensor_id;sensor_type;location;lat;lon;timestamp;P1;durP1;ratioP1;P2;durP2;ratioP2
58928;SDS011;44713;53.378;10.022;2022-09-12T00:00:46;2.28;;;1.77;;
58928;SDS011;44713;53.378;10.022;2022-09-12T00:03:11;2.78;;;2.00;;
58928;SDS011;44713;53.378;10.022;2022-09-12T00:05:44;1.98;;;1.88;;
58928;SDS011;44713;53.378;10.022;2022-09-12T00:08:11;1.92;;;1.73;;
58928;SDS011;44713;53.378;10.022;2022-09-12T00:10:41;1.75;;;1.40;;
58928;SDS011;44713;53.378;10.022;2022-09-12T00:13:08;2.35;;;2.10;;
58928;SDS011;44713;53.378;10.022;2022-09-12T00:15:45;1.63;;;1.52;;
58928;SDS011;44713;53.378;10.022;2022-09-12T00:18:14;3.72;;;1.60;;
58928;SDS011;44713;53.378;10.022;2022-09-12T00:20:44;1.60;;;1.50;;
58928;SDS011;44713;53.378;10.022;2022-09-12T00:23:11;2.92;;;1.92;;
58928;SDS011;44713;53.378;10.022;2022-09-12T00:25:40;3.03;;;1.80;;
58928;SDS011;44713;53.378;10.022;2022-09-12T00:28:07;1.98;;;1.73;;
58928;SDS011;44713;53.378;10.022;2022-09-12T00:30:32;1.35;;;1.25;;
58928;SDS011;44713;53.378;10.022;2022-09-12T00:32:58;1.75;;;1.65;;
58928;SDS011;44713;53.378;10.022;2022-09-12T00:35:23;2.05;;;1.52;;
58928;SDS011;44713;53.378;10.022;2022-09-12T00:37:48;2.58;;;1.70;;
58928;SDS011;44713;53.378;10.022;2022-09-12T00:40:14;2.40;;;1.90;;
58928;SDS011;44713;53.378;10.022;2022-09-12T00:42:39;2.20;;;1.70;;
58928;SDS011;44713;53.378;10.022;2022-09-12T00:45:04;1.80;;;1.67;;
58928;SDS011;44713;53.378;10.022;2022-09-12T00:47:30;3.63;;;1.60;;
58928;SDS011;44713;53.378;10.022;2022-09-12T00:50:04;2.08;;;1.67;;
58928;SDS011;44713;53.378;10.022;2022-09-12T00:57:46;4.13;;;1.73;;
58928;SDS011;44713;53.378;10.022;2022-09-12T01:00:17;1.67;;;1.58;;
58928;SDS011;44713;53.378;10.022;2022-09-12T01:02:48;3.53;;;1.88;;
58928;SDS011;44713;53.378;10.022;2022-09-12T01:05:19;2.22;;;1.55;;
58928;SDS011;44713;53.378;10.022;2022-09-12T01:07:46;2.53;;;1.55;;
58928;SDS011;44713;53.378;10.022;2022-09-12T01:10:14;1.77;;;1.60;;
58928;SDS011;44713;53.378;10.022;2022-09-12T01:12:40;2.40;;;2.20;;
58928;SDS011;44713;53.378;10.022;2022-09-12T01:15:08;1.73;;;1.40;;
58928;SDS011;44713;53.378;10.022;2022-09-12T01:17:41;1.38;;;1.25;;
58928;SDS011;44713;53.378;10.022;2022-09-12T01:23:47;1.60;;;1.50;;
58928;SDS011;44713;53.378;10.022;2022-09-12T01:26:21;1.60;;;1.50;;
58928;SDS011;44713;53.378;10.022;2022-09-12T01:34:57;1.65;;;1.30;;
58928;SDS011;44713;53.378;10.022;2022-09-12T01:37:26;2.80;;;1.35;;
58928;SDS011;44713;53.378;10.022;2022-09-12T01:40:02;1.67;;;1.40;;
58928;SDS011;44713;53.378;10.022;2022-09-12T01:45:28;4.22;;;1.27;;
58928;SDS011;44713;53.378;10.022;2022-09-12T01:48:02;1.90;;;1.63;;
58928;SDS011;44713;53.378;10.022;2022-09-12T01:50:46;2.90;;;1.55;;
58928;SDS011;44713;53.378;10.022;2022-09-12T01:53:24;1.60;;;1.50;;
58928;SDS011;44713;53.378;10.022;2022-09-12T01:55:55;3.85;;;1.50;;
58928;SDS011;44713;53.378;10.022;2022-09-12T01:58:28;3.15;;;1.85;;
58928;SDS011;44713;53.378;10.022;2022-09-12T02:01:09;1.70;;;1.50;;
58928;SDS011;44713;53.378;10.022;2022-09-12T02:03:44;2.28;;;1.80;;
58928;SDS011;44713;53.378;10.022;2022-09-12T02:06:18;1.30;;;1.20;;
58928;SDS011;44713;53.378;10.022;2022-09-12T02:08:51;1.60;;;1.20;;
58928;SDS011;44713;53.378;10.022;2022-09-12T02:11:20;1.33;;;1.23;;
58928;SDS011;44713;53.378;10.022;2022-09-12T02:13:53;2.10;;;1.55;;
58928;SDS011;44713;53.378;10.022;2022-09-12T02:16:34;1.48;;;1.38;;
58928;SDS011;44713;53.378;10.022;2022-09-12T02:19:10;1.70;;;1.60;;
58928;SDS011;44713;53.378;10.022;2022-09-12T02:21:40;2.08;;;1.30;;
58928;SDS011;44713;53.378;10.022;2022-09-12T02:24:11;2.63;;;1.60;;
58928;SDS011;44713;53.378;10.022;2022-09-12T02:27:22;2.85;;;1.10;;
58928;SDS011;44713;53.378;10.022;2022-09-12T02:29:31;1.08;;;1.05;;
58928;SDS011;44713;53.378;10.022;2022-09-12T02:31:57;2.72;;;1.20;;
58928;SDS011;44713;53.378;10.022;2022-09-12T02:39:47;1.23;;;1.13;;
58928;SDS011;44713;53.378;10.022;2022-09-12T02:42:13;2.53;;;1.48;;
58928;SDS011;44713;53.378;10.022;2022-09-12T02:44:38;2.33;;;1.75;;
58928;SDS011;44713;53.378;10.022;2022-09-12T02:47:11;1.40;;;1.30;;
58928;SDS011;44713;53.378;10.022;2022-09-12T02:49:42;1.20;;;1.10;;
58928;SDS011;44713;53.378;10.022;2022-09-12T02:52:07;1.95;;;1.63;;
58928;SDS011;44713;53.378;10.022;2022-09-12T02:54:33;3.75;;;1.70;;
58928;SDS011;44713;53.378;10.022;2022-09-12T02:56:58;3.20;;;1.98;;
58928;SDS011;44713;53.378;10.022;2022-09-12T02:59:24;5.50;;;1.60;;
58928;SDS011;44713;53.378;10.022;2022-09-12T03:01:59;1.85;;;1.60;;
58928;SDS011;44713;53.378;10.022;2022-09-12T03:26:15;1.65;;;1.50;;
58928;SDS011;44713;53.378;10.022;2022-09-12T03:28:47;1.50;;;1.30;;
58928;SDS011;44713;53.378;10.022;2022-09-12T03:31:14;1.50;;;1.17;;
58928;SDS011;44713;53.378;10.022;2022-09-12T03:33:41;1.67;;;1.15;;
58928;SDS011;44713;53.378;10.022;2022-09-12T03:36:19;1.98;;;1.48;;
58928;SDS011;44713;53.378;10.022;2022-09-12T03:38:48;1.65;;;1.55;;
58928;SDS011;44713;53.378;10.022;2022-09-12T03:41:13;1.98;;;1.60;;
58928;SDS011;44713;53.378;10.022;2022-09-12T03:43:39;1.90;;;1.15;;
58928;SDS011;44713;53.378;10.022;2022-09-12T03:46:05;2.90;;;1.30;;
58928;SDS011;44713;53.378;10.022;2022-09-12T03:48:30;3.47;;;1.25;;
58928;SDS011;44713;53.378;10.022;2022-09-12T03:50:58;1.42;;;1.33;;
58928;SDS011;44713;53.378;10.022;2022-09-12T03:53:28;2.53;;;1.33;;
58928;SDS011;44713;53.378;10.022;2022-09-12T03:55:54;2.35;;;1.33;;
58928;SDS011;44713;53.378;10.022;2022-09-12T03:58:20;1.52;;;1.30;;
58928;SDS011;44713;53.378;10.022;2022-09-12T04:00:45;3.22;;;1.17;;
58928;SDS011;44713;53.378;10.022;2022-09-12T04:03:11;1.73;;;1.23;;
58928;SDS011;44713;53.378;10.022;2022-09-12T04:05:36;1.35;;;1.00;;
58928;SDS011;44713;53.378;10.022;2022-09-12T04:08:01;2.90;;;1.70;;
58928;SDS011;44713;53.378;10.022;2022-09-12T04:10:27;2.92;;;1.60;;
58928;SDS011;44713;53.378;10.022;2022-09-12T04:12:52;2.65;;;1.45;;
58928;SDS011;44713;53.378;10.022;2022-09-12T04:15:18;1.98;;;1.42;;
58928;SDS011;44713;53.378;10.022;2022-09-12T04:17:43;1.85;;;1.50;;
58928;SDS011;44713;53.378;10.022;2022-09-12T04:20:08;2.17;;;1.70;;
58928;SDS011;44713;53.378;10.022;2022-09-12T04:22:34;1.85;;;1.27;;
58928;SDS011;44713;53.378;10.022;2022-09-12T04:24:59;3.33;;;1.73;;
58928;SDS011;44713;53.378;10.022;2022-09-12T04:27:25;2.03;;;1.63;;
58928;SDS011;44713;53.378;10.022;2022-09-12T04:29:50;5.45;;;1.40;;
58928;SDS011;44713;53.378;10.022;2022-09-12T04:32:16;2.13;;;1.85;;
58928;SDS011;44713;53.378;10.022;2022-09-12T04:34:42;2.85;;;2.10;;
58928;SDS011;44713;53.378;10.022;2022-09-12T04:37:07;4.80;;;1.77;;
58928;SDS011;44713;53.378;10.022;2022-09-12T04:39:33;4.82;;;2.05;;
58928;SDS011;44713;53.378;10.022;2022-09-12T04:41:58;1.65;;;1.42;;
58928;SDS011;44713;53.378;10.022;2022-09-12T04:44:23;1.30;;;1.20;;
58928;SDS011;44713;53.378;10.022;2022-09-12T04:46:49;3.03;;;1.63;;
58928;SDS011;44713;53.378;10.022;2022-09-12T04:49:14;2.60;;;1.73;;
58928;SDS011;44713;53.378;10.022;2022-09-12T04:51:41;1.33;;;1.23;;
58928;SDS011;44713;53.378;10.022;2022-09-12T04:54:09;3.40;;;2.03;;
58928;SDS011;44713;53.378;10.022;2022-09-12T04:56:37;2.00;;;1.15;;
58928;SDS011;44713;53.378;10.022;2022-09-12T04:59:04;2.83;;;1.88;;
58928;SDS011;44713;53.378;10.022;2022-09-12T05:01:30;2.60;;;2.40;;
58928;SDS011;44713;53.378;10.022;2022-09-12T05:03:56;1.98;;;1.77;;
58928;SDS011;44713;53.378;10.022;2022-09-12T05:06:24;1.33;;;1.23;;
58928;SDS011;44713;53.378;10.022;2022-09-12T05:08:52;1.88;;;1.63;;
58928;SDS011;44713;53.378;10.022;2022-09-12T05:11:20;2.30;;;1.73;;
58928;SDS011;44713;53.378;10.022;2022-09-12T05:13:47;1.63;;;1.52;;
58928;SDS011;44713;53.378;10.022;2022-09-12T05:16:14;3.72;;;1.88;;
58928;SDS011;44713;53.378;10.022;2022-09-12T05:18:41;1.27;;;1.17;;
58928;SDS011;44713;53.378;10.022;2022-09-12T05:21:09;2.03;;;1.50;;
58928;SDS011;44713;53.378;10.022;2022-09-12T05:23:35;3.08;;;1.65;;
58928;SDS011;44713;53.378;10.022;2022-09-12T05:26:01;1.88;;;1.73;;
58928;SDS011;44713;53.378;10.022;2022-09-12T05:28:28;1.73;;;1.63;;
58928;SDS011;44713;53.378;10.022;2022-09-12T05:31:06;1.75;;;1.50;;
58928;SDS011;44713;53.378;10.022;2022-09-12T05:33:37;3.35;;;1.83;;
58928;SDS011;44713;53.378;10.022;2022-09-12T05:36:03;3.53;;;1.75;;
58928;SDS011;44713;53.378;10.022;2022-09-12T05:38:31;3.40;;;1.88;;
58928;SDS011;44713;53.378;10.022;2022-09-12T05:41:06;2.53;;;1.25;;
58928;SDS011;44713;53.378;10.022;2022-09-12T05:43:33;2.00;;;1.70;;
58928;SDS011;44713;53.378;10.022;2022-09-12T05:46:04;2.40;;;2.03;;
58928;SDS011;44713;53.378;10.022;2022-09-12T05:48:33;3.72;;;1.90;;
58928;SDS011;44713;53.378;10.022;2022-09-12T05:51:03;4.80;;;2.30;;
58928;SDS011;44713;53.378;10.022;2022-09-12T05:53:38;2.45;;;1.98;;
58928;SDS011;44713;53.378;10.022;2022-09-12T05:56:12;2.58;;;2.38;;
58928;SDS011;44713;53.378;10.022;2022-09-12T05:58:40;3.45;;;1.98;;
58928;SDS011;44713;53.378;10.022;2022-09-12T06:01:16;2.50;;;2.30;;
58928;SDS011;44713;53.378;10.022;2022-09-12T06:03:53;3.10;;;2.63;;
58928;SDS011;44713;53.378;10.022;2022-09-12T06:06:20;3.70;;;2.75;;
58928;SDS011;44713;53.378;10.022;2022-09-12T06:08:49;3.40;;;3.10;;
58928;SDS011;44713;53.378;10.022;2022-09-12T06:11:17;2.65;;;2.45;;
58928;SDS011;44713;53.378;10.022;2022-09-12T06:13:45;6.53;;;3.65;;
58928;SDS011;44713;53.378;10.022;2022-09-12T06:16:11;4.88;;;4.00;;
58928;SDS011;44713;53.378;10.022;2022-09-12T06:18:38;5.10;;;3.97;;
58928;SDS011;44713;53.378;10.022;2022-09-12T06:21:05;6.53;;;4.15;;
58928;SDS011;44713;53.378;10.022;2022-09-12T06:23:31;5.45;;;4.43;;
58928;SDS011;44713;53.378;10.022;2022-09-12T06:25:57;4.38;;;3.95;;
58928;SDS011;44713;53.378;10.022;2022-09-12T06:28:23;4.57;;;4.18;;
58928;SDS011;44713;53.378;10.022;2022-09-12T06:30:49;4.50;;;4.10;;
58928;SDS011;44713;53.378;10.022;2022-09-12T06:33:14;4.90;;;4.50;;
58928;SDS011;44713;53.378;10.022;2022-09-12T06:35:40;4.47;;;4.07;;
58928;SDS011;44713;53.378;10.022;2022-09-12T06:38:06;11.38;;;4.60;;
58928;SDS011;44713;53.378;10.022;2022-09-12T06:40:31;5.07;;;4.50;;
58928;SDS011;44713;53.378;10.022;2022-09-12T06:42:57;4.90;;;4.40;;
58928;SDS011;44713;53.378;10.022;2022-09-12T06:45:32;5.00;;;4.35;;
58928;SDS011;44713;53.378;10.022;2022-09-12T06:47:57;4.40;;;4.00;;
58928;SDS011;44713;53.378;10.022;2022-09-12T06:50:22;5.70;;;4.80;;
58928;SDS011;44713;53.378;10.022;2022-09-12T06:52:48;5.15;;;4.50;;
58928;SDS011;44713;53.378;10.022;2022-09-12T06:55:15;5.00;;;4.50;;
58928;SDS011;44713;53.378;10.022;2022-09-12T06:57:40;5.70;;;5.00;;
58928;SDS011;44713;53.378;10.022;2022-09-12T07:00:06;6.15;;;5.55;;
58928;SDS011;44713;53.378;10.022;2022-09-12T07:02:32;6.78;;;5.60;;
58928;SDS011;44713;53.378;10.022;2022-09-12T07:04:57;5.82;;;5.32;;
58928;SDS011;44713;53.378;10.022;2022-09-12T07:07:22;5.97;;;5.30;;
58928;SDS011;44713;53.378;10.022;2022-09-12T07:09:48;7.63;;;5.63;;
58928;SDS011;44713;53.378;10.022;2022-09-12T07:12:14;7.85;;;7.05;;
58928;SDS011;44713;53.378;10.022;2022-09-12T07:14:39;9.50;;;7.97;;
58928;SDS011;44713;53.378;10.022;2022-09-12T07:17:05;10.15;;;8.25;;
58928;SDS011;44713;53.378;10.022;2022-09-12T07:19:31;8.57;;;7.70;;
58928;SDS011;44713;53.378;10.022;2022-09-12T07:21:57;8.88;;;7.60;;
58928;SDS011;44713;53.378;10.022;2022-09-12T07:24:22;7.72;;;6.90;;
58928;SDS011;44713;53.378;10.022;2022-09-12T07:26:47;10.02;;;8.02;;
58928;SDS011;44713;53.378;10.022;2022-09-12T07:29:14;10.52;;;8.00;;
58928;SDS011;44713;53.378;10.022;2022-09-12T07:31:40;7.40;;;6.70;;
58928;SDS011;44713;53.378;10.022;2022-09-12T07:34:06;8.73;;;7.35;;
58928;SDS011;44713;53.378;10.022;2022-09-12T07:36:31;10.20;;;7.50;;
58928;SDS011;44713;53.378;10.022;2022-09-12T07:38:57;9.88;;;7.60;;
58928;SDS011;44713;53.378;10.022;2022-09-12T07:41:23;7.80;;;6.30;;
58928;SDS011;44713;53.378;10.022;2022-09-12T07:43:51;10.63;;;7.32;;
58928;SDS011;44713;53.378;10.022;2022-09-12T07:46:24;8.00;;;6.90;;
58928;SDS011;44713;53.378;10.022;2022-09-12T07:48:51;6.50;;;5.90;;
58928;SDS011;44713;53.378;10.022;2022-09-12T07:51:18;7.38;;;6.55;;
58928;SDS011;44713;53.378;10.022;2022-09-12T07:53:44;8.55;;;6.38;;
58928;SDS011;44713;53.378;10.022;2022-09-12T07:56:10;10.63;;;7.13;;
58928;SDS011;44713;53.378;10.022;2022-09-12T07:58:37;8.73;;;6.97;;
58928;SDS011;44713;53.378;10.022;2022-09-12T08:01:14;6.80;;;6.13;;
58928;SDS011;44713;53.378;10.022;2022-09-12T08:03:41;6.85;;;5.32;;
58928;SDS011;44713;53.378;10.022;2022-09-12T08:06:09;5.93;;;5.32;;
58928;SDS011;44713;53.378;10.022;2022-09-12T08:08:35;5.25;;;4.75;;
58928;SDS011;44713;53.378;10.022;2022-09-12T08:11:01;5.18;;;4.65;;
58928;SDS011;44713;53.378;10.022;2022-09-12T08:13:30;6.25;;;5.32;;
58928;SDS011;44713;53.378;10.022;2022-09-12T08:15:56;5.68;;;5.10;;
58928;SDS011;44713;53.378;10.022;2022-09-12T08:18:24;5.90;;;5.40;;
58928;SDS011;44713;53.378;10.022;2022-09-12T08:21:00;7.13;;;5.63;;
58928;SDS011;44713;53.378;10.022;2022-09-12T08:23:27;5.57;;;5.18;;
58928;SDS011;44713;53.378;10.022;2022-09-12T08:25:56;6.32;;;5.43;;
58928;SDS011;44713;53.378;10.022;2022-09-12T08:28:23;6.22;;;5.68;;
58928;SDS011;44713;53.378;10.022;2022-09-12T08:30:49;6.90;;;5.97;;
58928;SDS011;44713;53.378;10.022;2022-09-12T08:33:15;6.13;;;5.18;;
58928;SDS011;44713;53.378;10.022;2022-09-12T08:35:41;6.30;;;4.93;;
58928;SDS011;44713;53.378;10.022;2022-09-12T08:38:06;4.82;;;4.43;;
58928;SDS011;44713;53.378;10.022;2022-09-12T08:40:32;5.15;;;3.58;;
58928;SDS011;44713;53.378;10.022;2022-09-12T08:43:07;3.80;;;3.38;;
58928;SDS011;44713;53.378;10.022;2022-09-12T08:46:07;3.53;;;3.05;;
58928;SDS011;44713;53.378;10.022;2022-09-12T08:48:38;2.63;;;2.42;;
58928;SDS011;44713;53.378;10.022;2022-09-12T08:51:06;3.08;;;2.13;;
58928;SDS011;44713;53.378;10.022;2022-09-12T08:53:36;2.63;;;2.10;;
58928;SDS011;44713;53.378;10.022;2022-09-12T08:56:03;3.25;;;1.92;;
58928;SDS011;44713;53.378;10.022;2022-09-12T08:58:29;2.63;;;2.25;;
58928;SDS011;44713;53.378;10.022;2022-09-12T09:07:15;2.10;;;1.90;;
58928;SDS011;44713;53.378;10.022;2022-09-12T09:14:59;1.73;;;1.35;;
58928;SDS011;44713;53.378;10.022;2022-09-12T09:20:06;1.95;;;1.08;;
58928;SDS011;44713;53.378;10.022;2022-09-12T09:22:49;1.52;;;1.42;;
58928;SDS011;44713;53.378;10.022;2022-09-12T09:25:23;3.45;;;1.05;;
58928;SDS011;44713;53.378;10.022;2022-09-12T09:28:11;1.20;;;1.10;;
58928;SDS011;44713;53.378;10.022;2022-09-12T09:30:42;1.88;;;1.00;;
58928;SDS011;44713;53.378;10.022;2022-09-12T09:33:09;0.57;;;0.57;;
58928;SDS011;44713;53.378;10.022;2022-09-12T09:35:45;1.10;;;0.70;;
58928;SDS011;44713;53.378;10.022;2022-09-12T09:43:42;2.97;;;0.73;;
58928;SDS011;44713;53.378;10.022;2022-09-12T09:46:08;5.88;;;0.63;;
58928;SDS011;44713;53.378;10.022;2022-09-12T09:48:35;1.60;;;0.80;;
58928;SDS011;44713;53.378;10.022;2022-09-12T09:51:05;2.05;;;0.90;;
58928;SDS011;44713;53.378;10.022;2022-09-12T09:53:51;4.78;;;0.70;;
58928;SDS011;44713;53.378;10.022;2022-09-12T09:56:27;0.45;;;0.40;;
58928;SDS011;44713;53.378;10.022;2022-09-12T09:59:06;1.63;;;0.40;;
58928;SDS011;44713;53.378;10.022;2022-09-12T10:01:36;0.40;;;0.40;;
58928;SDS011;44713;53.378;10.022;2022-09-12T10:04:03;0.50;;;0.50;;
58928;SDS011;44713;53.378;10.022;2022-09-12T10:06:32;0.50;;;0.30;;
58928;SDS011;44713;53.378;10.022;2022-09-12T10:11:45;0.40;;;0.40;;
58928;SDS011;44713;53.378;10.022;2022-09-12T10:14:25;0.73;;;0.47;;
58928;SDS011;44713;53.378;10.022;2022-09-12T10:16:52;0.50;;;0.40;;
58928;SDS011;44713;53.378;10.022;2022-09-12T10:19:22;0.40;;;0.40;;
58928;SDS011;44713;53.378;10.022;2022-09-12T10:21:56;0.45;;;0.45;;
58928;SDS011;44713;53.378;10.022;2022-09-12T10:29:46;0.52;;;0.52;;
58928;SDS011;44713;53.378;10.022;2022-09-12T10:32:41;0.73;;;0.50;;
58928;SDS011;44713;53.378;10.022;2022-09-12T10:35:19;0.85;;;0.50;;
58928;SDS011;44713;53.378;10.022;2022-09-12T10:40:30;0.60;;;0.60;;
58928;SDS011;44713;53.378;10.022;2022-09-12T10:43:00;0.50;;;0.50;;
58928;SDS011;44713;53.378;10.022;2022-09-12T10:47:59;0.57;;;0.55;;
58928;SDS011;44713;53.378;10.022;2022-09-12T10:50:28;0.63;;;0.60;;
58928;SDS011;44713;53.378;10.022;2022-09-12T11:06:24;1.17;;;0.80;;
58928;SDS011;44713;53.378;10.022;2022-09-12T11:09:12;0.70;;;0.70;;
58928;SDS011;44713;53.378;10.022;2022-09-12T11:17:05;0.70;;;0.70;;
58928;SDS011;44713;53.378;10.022;2022-09-12T11:20:01;2.22;;;0.90;;
58928;SDS011;44713;53.378;10.022;2022-09-12T11:25:46;0.60;;;0.60;;
58928;SDS011;44713;53.378;10.022;2022-09-12T11:29:04;2.25;;;1.08;;
58928;SDS011;44713;53.378;10.022;2022-09-12T11:34:24;0.80;;;0.80;;
58928;SDS011;44713;53.378;10.022;2022-09-12T11:37:11;0.95;;;0.80;;
58928;SDS011;44713;53.378;10.022;2022-09-12T11:40:02;1.25;;;0.80;;
58928;SDS011;44713;53.378;10.022;2022-09-12T11:42:41;1.33;;;0.75;;
58928;SDS011;44713;53.378;10.022;2022-09-12T11:45:13;1.05;;;0.95;;
58928;SDS011;44713;53.378;10.022;2022-09-12T11:47:42;2.30;;;1.00;;
58928;SDS011;44713;53.378;10.022;2022-09-12T11:50:27;1.77;;;0.90;;
58928;SDS011;44713;53.378;10.022;2022-09-12T11:52:56;1.98;;;0.85;;
58928;SDS011;44713;53.378;10.022;2022-09-12T11:55:28;0.85;;;0.82;;
58928;SDS011;44713;53.378;10.022;2022-09-12T11:58:03;1.85;;;0.90;;
58928;SDS011;44713;53.378;10.022;2022-09-12T12:05:50;1.25;;;0.77;;
58928;SDS011;44713;53.378;10.022;2022-09-12T12:08:20;1.40;;;0.80;;
58928;SDS011;44713;53.378;10.022;2022-09-12T12:10:49;0.95;;;0.80;;
58928;SDS011;44713;53.378;10.022;2022-09-12T12:13:18;1.55;;;0.80;;
58928;SDS011;44713;53.378;10.022;2022-09-12T12:15:50;1.50;;;1.10;;
58928;SDS011;44713;53.378;10.022;2022-09-12T12:18:22;1.30;;;0.90;;
58928;SDS011;44713;53.378;10.022;2022-09-12T12:20:49;1.35;;;0.80;;
58928;SDS011;44713;53.378;10.022;2022-09-12T12:25:52;2.05;;;1.05;;
58928;SDS011;44713;53.378;10.022;2022-09-12T12:31:05;1.88;;;1.05;;
58928;SDS011;44713;53.378;10.022;2022-09-12T12:38:54;2.85;;;1.55;;
58928;SDS011;44713;53.378;10.022;2022-09-12T12:43:41;3.45;;;1.10;;
58928;SDS011;44713;53.378;10.022;2022-09-12T12:46:18;2.20;;;1.40;;
58928;SDS011;44713;53.378;10.022;2022-09-12T12:48:46;1.75;;;1.33;;
58928;SDS011;44713;53.378;10.022;2022-09-12T12:53:50;1.70;;;1.27;;
58928;SDS011;44713;53.378;10.022;2022-09-12T12:56:24;2.45;;;1.30;;
58928;SDS011;44713;53.378;10.022;2022-09-12T12:58:57;1.23;;;1.10;;
58928;SDS011;44713;53.378;10.022;2022-09-12T13:01:24;1.30;;;1.20;;
58928;SDS011;44713;53.378;10.022;2022-09-12T13:04:02;1.70;;;1.40;;
58928;SDS011;44713;53.378;10.022;2022-09-12T13:06:39;1.13;;;1.02;;
58928;SDS011;44713;53.378;10.022;2022-09-12T13:09:08;2.63;;;1.30;;
58928;SDS011;44713;53.378;10.022;2022-09-12T13:11:42;1.73;;;1.30;;
58928;SDS011;44713;53.378;10.022;2022-09-12T13:16:59;2.80;;;1.50;;
58928;SDS011;44713;53.378;10.022;2022-09-12T13:19:30;2.03;;;1.33;;
58928;SDS011;44713;53.378;10.022;2022-09-12T13:22:02;2.25;;;1.30;;
58928;SDS011;44713;53.378;10.022;2022-09-12T13:24:33;1.95;;;1.30;;
58928;SDS011;44713;53.378;10.022;2022-09-12T13:27:17;2.17;;;1.70;;
58928;SDS011;44713;53.378;10.022;2022-09-12T13:29:47;1.98;;;1.65;;
58928;SDS011;44713;53.378;10.022;2022-09-12T13:32:14;2.53;;;1.85;;
58928;SDS011;44713;53.378;10.022;2022-09-12T13:38:10;2.30;;;1.50;;
58928;SDS011;44713;53.378;10.022;2022-09-12T13:43:44;2.72;;;1.63;;
58928;SDS011;44713;53.378;10.022;2022-09-12T13:46:15;2.45;;;1.60;;
58928;SDS011;44713;53.378;10.022;2022-09-12T13:48:45;3.20;;;1.48;;
58928;SDS011;44713;53.378;10.022;2022-09-12T13:51:18;3.33;;;1.40;;
58928;SDS011;44713;53.378;10.022;2022-09-12T13:53:48;1.77;;;1.67;;
58928;SDS011;44713;53.378;10.022;2022-09-12T13:56:15;1.80;;;1.23;;
58928;SDS011;44713;53.378;10.022;2022-09-12T13:58:58;2.10;;;1.75;;
58928;SDS011;44713;53.378;10.022;2022-09-12T14:01:41;2.80;;;1.60;;
58928;SDS011;44713;53.378;10.022;2022-09-12T14:04:15;2.05;;;1.70;;
58928;SDS011;44713;53.378;10.022;2022-09-12T14:09:43;1.65;;;1.50;;
58928;SDS011;44713;53.378;10.022;2022-09-12T14:12:13;1.77;;;1.50;;
58928;SDS011;44713;53.378;10.022;2022-09-12T14:14:49;1.92;;;1.30;;
58928;SDS011;44713;53.378;10.022;2022-09-12T14:17:16;3.38;;;1.55;;
58928;SDS011;44713;53.378;10.022;2022-09-12T14:19:54;3.20;;;1.50;;
58928;SDS011;44713;53.378;10.022;2022-09-12T14:22:23;2.55;;;1.95;;
58928;SDS011;44713;53.378;10.022;2022-09-12T14:24:53;2.20;;;1.75;;
58928;SDS011;44713;53.378;10.022;2022-09-12T14:27:21;2.05;;;1.90;;
58928;SDS011;44713;53.378;10.022;2022-09-12T14:29:55;2.33;;;1.90;;
58928;SDS011;44713;53.378;10.022;2022-09-12T14:32:26;2.22;;;2.00;;
58928;SDS011;44713;53.378;10.022;2022-09-12T14:37:35;2.78;;;1.98;;
58928;SDS011;44713;53.378;10.022;2022-09-12T14:40:02;1.98;;;1.80;;
58928;SDS011;44713;53.378;10.022;2022-09-12T14:42:29;2.28;;;1.90;;
58928;SDS011;44713;53.378;10.022;2022-09-12T14:45:12;2.28;;;1.70;;
58928;SDS011;44713;53.378;10.022;2022-09-12T14:47:41;3.30;;;1.83;;
58928;SDS011;44713;53.378;10.022;2022-09-12T14:50:15;3.50;;;2.00;;
58928;SDS011;44713;53.378;10.022;2022-09-12T14:52:43;2.58;;;1.90;;
58928;SDS011;44713;53.378;10.022;2022-09-12T14:57:40;3.17;;;2.00;;
58928;SDS011;44713;53.378;10.022;2022-09-12T15:00:14;2.47;;;1.70;;
58928;SDS011;44713;53.378;10.022;2022-09-12T15:02:44;2.63;;;1.92;;
58928;SDS011;44713;53.378;10.022;2022-09-12T15:07:40;2.40;;;1.88;;
58928;SDS011;44713;53.378;10.022;2022-09-12T15:12:38;3.70;;;2.00;;
58928;SDS011;44713;53.378;10.022;2022-09-12T15:15:14;1.80;;;1.70;;
58928;SDS011;44713;53.378;10.022;2022-09-12T15:17:41;1.90;;;1.70;;
58928;SDS011;44713;53.378;10.022;2022-09-12T15:20:07;5.63;;;2.00;;
58928;SDS011;44713;53.378;10.022;2022-09-12T15:22:32;2.38;;;2.17;;
58928;SDS011;44713;53.378;10.022;2022-09-12T15:24:59;3.58;;;1.70;;
58928;SDS011;44713;53.378;10.022;2022-09-12T15:27:25;3.85;;;1.92;;
58928;SDS011;44713;53.378;10.022;2022-09-12T15:29:51;2.45;;;1.88;;
58928;SDS011;44713;53.378;10.022;2022-09-12T15:32:23;2.50;;;1.80;;
58928;SDS011;44713;53.378;10.022;2022-09-12T15:34:50;6.47;;;2.03;;
58928;SDS011;44713;53.378;10.022;2022-09-12T15:37:17;3.17;;;2.25;;
58928;SDS011;44713;53.378;10.022;2022-09-12T15:39:44;1.90;;;1.73;;
58928;SDS011;44713;53.378;10.022;2022-09-12T15:42:10;2.10;;;1.90;;
58928;SDS011;44713;53.378;10.022;2022-09-12T15:44:37;2.35;;;2.13;;
58928;SDS011;44713;53.378;10.022;2022-09-12T15:47:02;2.83;;;2.05;;
58928;SDS011;44713;53.378;10.022;2022-09-12T15:49:27;2.53;;;1.85;;
58928;SDS011;44713;53.378;10.022;2022-09-12T15:51:53;2.90;;;2.10;;
58928;SDS011;44713;53.378;10.022;2022-09-12T15:54:19;2.40;;;2.05;;
58928;SDS011;44713;53.378;10.022;2022-09-12T15:56:44;2.45;;;2.20;;
58928;SDS011;44713;53.378;10.022;2022-09-12T15:59:10;3.90;;;2.10;;
58928;SDS011;44713;53.378;10.022;2022-09-12T16:01:35;4.28;;;2.10;;
58928;SDS011;44713;53.378;10.022;2022-09-12T16:04:01;2.38;;;2.17;;
58928;SDS011;44713;53.378;10.022;2022-09-12T16:06:27;2.42;;;2.22;;
58928;SDS011;44713;53.378;10.022;2022-09-12T16:08:55;3.28;;;2.42;;
58928;SDS011;44713;53.378;10.022;2022-09-12T16:11:22;2.97;;;2.65;;
58928;SDS011;44713;53.378;10.022;2022-09-12T16:13:50;3.10;;;2.20;;
58928;SDS011;44713;53.378;10.022;2022-09-12T16:16:16;4.35;;;2.30;;
58928;SDS011;44713;53.378;10.022;2022-09-12T16:18:41;3.47;;;2.53;;
58928;SDS011;44713;53.378;10.022;2022-09-12T16:21:07;2.30;;;2.10;;
58928;SDS011;44713;53.378;10.022;2022-09-12T16:23:32;3.03;;;2.30;;
58928;SDS011;44713;53.378;10.022;2022-09-12T16:25:58;3.45;;;2.40;;
58928;SDS011;44713;53.378;10.022;2022-09-12T16:28:28;3.03;;;2.42;;
58928;SDS011;44713;53.378;10.022;2022-09-12T16:31:12;2.60;;;2.20;;
58928;SDS011;44713;53.378;10.022;2022-09-12T16:36:06;2.83;;;2.20;;
58928;SDS011;44713;53.378;10.022;2022-09-12T16:38:33;2.88;;;2.58;;
58928;SDS011;44713;53.378;10.022;2022-09-12T16:41:03;3.22;;;2.42;;
58928;SDS011;44713;53.378;10.022;2022-09-12T16:43:31;3.47;;;2.60;;
58928;SDS011;44713;53.378;10.022;2022-09-12T16:46:07;4.13;;;2.70;;
58928;SDS011;44713;53.378;10.022;2022-09-12T16:48:36;3.53;;;2.58;;
58928;SDS011;44713;53.378;10.022;2022-09-12T16:51:05;2.55;;;2.20;;
58928;SDS011;44713;53.378;10.022;2022-09-12T16:53:35;2.30;;;2.10;;
58928;SDS011;44713;53.378;10.022;2022-09-12T16:56:02;3.33;;;2.20;;
58928;SDS011;44713;53.378;10.022;2022-09-12T16:58:32;3.38;;;2.30;;
58928;SDS011;44713;53.378;10.022;2022-09-12T17:01:20;4.80;;;2.53;;
58928;SDS011;44713;53.378;10.022;2022-09-12T17:03:46;2.95;;;2.45;;
58928;SDS011;44713;53.378;10.022;2022-09-12T17:06:12;2.95;;;2.50;;
58928;SDS011;44713;53.378;10.022;2022-09-12T17:08:41;2.88;;;2.60;;
58928;SDS011;44713;53.378;10.022;2022-09-12T17:11:12;2.67;;;2.17;;
58928;SDS011;44713;53.378;10.022;2022-09-12T17:13:39;3.35;;;2.22;;
58928;SDS011;44713;53.378;10.022;2022-09-12T17:16:09;3.35;;;2.40;;